Time;durP1;ratioP1;P1;durP2;ratioP2;P2;SDS_P1;SDS_P2;PMS_P1;PMS_P2;Temp;Humidity;BMP_temperature;BMP_pressure;BME280_temperature;BME280_humidity;BME280_pressure;Samples;Min_cycle;Max_cycle;Signal;HPM_P1;HPM_P2
2021/03/15 00:00:39;;;;;;;;;;;21.90;34.20;;;;;;491652;240;1097;-45
2021/03/15 00:02:41;;;;;;;;;;;21.80;34.20;;;;;;491768;240;2141;-45
2021/03/15 00:04:42;;;;;;;;;;;21.90;34.20;;;;;;492133;240;1039;-45
2021/03/15 00:06:43;;;;;;;;;;;21.90;34.20;;;;;;491722;240;1122;-45
2021/03/15 00:08:45;;;;;;;;;;;21.80;34.20;;;;;;491676;240;1177;-45
2021/03/15 00:10:46;;;;;;;;;;;21.80;34.20;;;;;;491645;240;1342;-45
2021/03/15 00:12:47;;;;;;;;;;;21.90;34.20;;;;;;491672;240;1021;-45
2021/03/15 00:14:48;;;;;;;;;;;21.90;34.20;;;;;;491998;240;1084;-45
2021/03/15 00:16:50;;;;;;;;;;;21.90;34.20;;;;;;491626;240;1174;-45
2021/03/15 00:18:51;;;;;;;;;;;21.90;34.20;;;;;;491706;240;1050;-45
2021/03/15 00:20:53;;;;;;;;;;;21.90;34.20;;;;;;491611;240;1115;-45
2021/03/15 00:22:54;;;;;;;;;;;21.90;34.20;;;;;;491600;240;2191;-44
2021/03/15 00:24:55;;;;;;;;;;;21.90;34.20;;;;;;491803;240;1034;-45
2021/03/15 00:26:56;;;;;;;;;;;21.80;34.20;;;;;;491581;240;1178;-44
2021/03/15 00:28:58;;;;;;;;;;;21.80;34.20;;;;;;491758;240;1120;-44
2021/03/15 00:30:59;;;;;;;;;;;21.80;34.20;;;;;;491628;240;1192;-45
2021/03/15 00:33:00;;;;;;;;;;;21.80;34.20;;;;;;491550;240;1141;-44
2021/03/15 00:35:02;;;;;;;;;;;21.80;34.20;;;;;;491751;240;1059;-45
2021/03/15 00:37:03;;;;;;;;;;;21.80;34.30;;;;;;491662;240;1169;-45
2021/03/15 00:39:04;;;;;;;;;;;21.90;34.20;;;;;;491682;240;1080;-45
2021/03/15 00:41:05;;;;;;;;;;;21.80;34.30;;;;;;491710;240;1485;-44
2021/03/15 00:43:07;;;;;;;;;;;21.30;35.10;;;;;;491655;240;2183;-44
2021/03/15 00:45:08;;;;;;;;;;;20.80;36.10;;;;;;491645;240;979;-44
2021/03/15 00:47:09;;;;;;;;;;;20.40;36.90;;;;;;491608;240;1366;-44
2021/03/15 00:49:11;;;;;;;;;;;20.10;37.30;;;;;;491724;240;1053;-44
2021/03/15 00:51:12;;;;;;;;;;;19.90;37.70;;;;;;492026;240;1031;-44
2021/03/15 00:53:13;;;;;;;;;;;19.80;37.80;;;;;;491766;240;1152;-45
2021/03/15 00:55:14;;;;;;;;;;;19.70;38.20;;;;;;491820;240;1009;-44
2021/03/15 00:57:17;;;;;;;;;;;19.60;38.40;;;;;;491635;240;1108;-45
2021/03/15 00:59:17;;;;;;;;;;;19.40;38.60;;;;;;491743;240;1923;-44
2021/03/15 01:01:19;;;;;;;;;;;19.40;38.70;;;;;;491799;240;1084;-44
2021/03/15 01:03:20;;;;;;;;;;;19.40;38.80;;;;;;491657;240;2180;-44
2021/03/15 01:05:21;;;;;;;;;;;19.30;38.90;;;;;;491990;240;1020;-44
2021/03/15 01:07:22;;;;;;;;;;;19.30;39.10;;;;;;491687;240;1067;-44
2021/03/15 01:09:24;;;;;;;;;;;19.20;39.10;;;;;;491778;240;1208;-44
2021/03/15 01:11:25;;;;;;;;;;;19.10;39.20;;;;;;491725;240;1021;-44
2021/03/15 01:13:26;;;;;;;;;;;19.10;39.30;;;;;;492096;240;1075;-44
2021/03/15 01:15:28;;;;;;;;;;;19.00;39.40;;;;;;492064;240;1050;-44
2021/03/15 01:17:29;;;;;;;;;;;19.00;39.50;;;;;;492037;240;1046;-44
2021/03/15 01:19:30;;;;;;;;;;;19.00;39.50;;;;;;492072;240;958;-44
2021/03/15 01:21:32;;;;;;;;;;;18.90;39.50;;;;;;491755;240;1058;-44
2021/03/15 01:23:33;;;;;;;;;;;18.90;39.50;;;;;;491889;240;2203;-44
2021/03/15 01:25:34;;;;;;;;;;;18.90;39.60;;;;;;491907;240;1349;-45
2021/03/15 01:27:35;;;;;;;;;;;18.90;39.60;;;;;;491653;240;1039;-44
2021/03/15 01:29:37;;;;;;;;;;;18.80;39.60;;;;;;491942;240;1055;-45
2021/03/15 01:31:38;;;;;;;;;;;18.80;39.70;;;;;;491664;240;1026;-44
2021/03/15 01:33:39;;;;;;;;;;;18.80;39.70;;;;;;491930;240;1025;-44
2021/03/15 01:35:41;;;;;;;;;;;18.70;39.80;;;;;;491865;240;1228;-44
2021/03/15 01:37:42;;;;;;;;;;;18.70;39.80;;;;;;491633;240;1153;-44
2021/03/15 01:39:43;;;;;;;;;;;18.70;39.80;;;;;;491705;240;1211;-45
2021/03/15 01:41:44;;;;;;;;;;;18.60;39.80;;;;;;491705;240;1074;-44
2021/03/15 01:43:46;;;;;;;;;;;18.60;39.90;;;;;;491623;240;2189;-44
2021/03/15 01:45:47;;;;;;;;;;;18.70;39.90;;;;;;491593;240;1167;-44
2021/03/15 01:47:48;;;;;;;;;;;18.70;39.80;;;;;;491941;240;1318;-44
2021/03/15 01:49:49;;;;;;;;;;;18.60;39.80;;;;;;491688;240;1046;-44
2021/03/15 01:51:51;;;;;;;;;;;18.60;39.90;;;;;;491847;240;1384;-44
2021/03/15 01:53:52;;;;;;;;;;;18.60;39.90;;;;;;491978;240;1174;-44
2021/03/15 01:55:53;;;;;;;;;;;18.50;40.00;;;;;;491965;240;1106;-44
2021/03/15 01:57:54;;;;;;;;;;;18.50;40.00;;;;;;491869;240;1078;-44
2021/03/15 01:59:56;;;;;;;;;;;18.50;40.00;;;;;;491926;240;1073;-44
2021/03/15 02:01:57;;;;;;;;;;;18.50;40.00;;;;;;491786;240;1323;-44
2021/03/15 02:03:58;;;;;;;;;;;18.50;40.00;;;;;;491942;240;2195;-44
2021/03/15 02:06:00;;;;;;;;;;;18.50;40.00;;;;;;491729;240;1178;-44
2021/03/15 02:08:01;;;;;;;;;;;18.50;40.10;;;;;;491670;240;1012;-44
2021/03/15 02:10:02;;;;;;;;;;;18.40;40.10;;;;;;491674;240;1245;-44
2021/03/15 02:12:04;;;;;;;;;;;18.50;40.10;;;;;;491666;240;1084;-44
2021/03/15 02:14:05;;;;;;;;;;;18.50;40.00;;;;;;491787;240;1041;-44
2021/03/15 02:16:06;;;;;;;;;;;18.40;40.00;;;;;;491587;240;986;-44
2021/03/15 02:18:07;;;;;;;;;;;18.40;40.10;;;;;;491647;240;1056;-44
2021/03/15 02:20:09;;;;;;;;;;;18.40;40.10;;;;;;491666;240;1078;-44
2021/03/15 02:22:10;;;;;;;;;;;18.40;40.10;;;;;;491755;240;1058;-44
2021/03/15 02:24:11;;;;;;;;;;;18.30;40.20;;;;;;491817;240;2109;-44
2021/03/15 02:26:12;;;;;;;;;;;18.30;40.10;;;;;;491663;240;1044;-44
2021/03/15 02:28:14;;;;;;;;;;;18.30;40.20;;;;;;492002;240;1059;-44
2021/03/15 02:30:15;;;;;;;;;;;18.30;40.20;;;;;;491838;240;1066;-44
2021/03/15 02:32:16;;;;;;;;;;;18.30;40.20;;;;;;492101;240;1112;-44
2021/03/15 02:34:18;;;;;;;;;;;18.30;40.20;;;;;;491872;240;1067;-44
2021/03/15 02:36:19;;;;;;;;;;;18.30;40.20;;;;;;491722;240;1061;-44
2021/03/15 02:38:20;;;;;;;;;;;18.30;40.20;;;;;;491646;240;1027;-44
2021/03/15 02:40:21;;;;;;;;;;;18.30;40.20;;;;;;491824;240;1205;-45
2021/03/15 02:42:23;;;;;;;;;;;18.20;40.20;;;;;;491632;240;1131;-44
2021/03/15 02:44:24;;;;;;;;;;;18.20;40.20;;;;;;491647;240;2229;-44
2021/03/15 02:46:25;;;;;;;;;;;18.20;40.20;;;;;;491661;240;1053;-44
2021/03/15 02:48:27;;;;;;;;;;;18.20;40.30;;;;;;491663;240;1165;-44
2021/03/15 02:50:28;;;;;;;;;;;18.20;40.30;;;;;;492154;240;1062;-44
2021/03/15 02:52:29;;;;;;;;;;;18.20;40.30;;;;;;491821;240;1044;-44
2021/03/15 02:54:30;;;;;;;;;;;18.20;40.30;;;;;;491681;239;1323;-44
2021/03/15 02:56:32;;;;;;;;;;;18.20;40.20;;;;;;491755;240;1293;-44
2021/03/15 02:58:33;;;;;;;;;;;18.20;40.20;;;;;;491919;240;1183;-44
2021/03/15 03:00:34;;;;;;;;;;;18.10;40.30;;;;;;491724;240;1181;-44
2021/03/15 03:02:36;;;;;;;;;;;18.10;40.40;;;;;;491595;240;2183;-44
2021/03/15 03:04:37;;;;;;;;;;;18.10;40.30;;;;;;491668;240;1024;-44
2021/03/15 03:06:38;;;;;;;;;;;18.10;40.30;;;;;;492051;240;1209;-44
2021/03/15 03:08:39;;;;;;;;;;;18.10;40.30;;;;;;491725;240;1061;-44
2021/03/15 03:10:41;;;;;;;;;;;18.10;40.30;;;;;;491649;240;1160;-44
2021/03/15 03:12:42;;;;;;;;;;;18.10;40.40;;;;;;491571;240;1308;-44
2021/03/15 03:14:43;;;;;;;;;;;18.10;40.40;;;;;;491723;240;1112;-44
2021/03/15 03:16:44;;;;;;;;;;;18.10;40.40;;;;;;491973;240;1231;-44
2021/03/15 03:18:46;;;;;;;;;;;18.10;40.30;;;;;;491739;240;1113;-44
2021/03/15 03:20:47;;;;;;;;;;;18.10;40.30;;;;;;491628;240;1417;-44
2021/03/15 03:22:49;;;;;;;;;;;18.10;40.30;;;;;;491706;240;2191;-44
2021/03/15 03:24:50;;;;;;;;;;;18.00;40.30;;;;;;491647;240;1150;-44
2021/03/15 03:26:51;;;;;;;;;;;18.10;40.20;;;;;;491743;240;1225;-44
2021/03/15 03:28:53;;;;;;;;;;;18.30;39.80;;;;;;491850;240;1051;-44
2021/03/15 03:30:54;;;;;;;;;;;18.80;38.90;;;;;;491631;240;996;-44
2021/03/15 03:32:55;;;;;;;;;;;19.10;38.20;;;;;;491616;241;1895;-45
2021/03/15 03:34:57;;;;;;;;;;;19.30;37.60;;;;;;491666;240;1114;-45
2021/03/15 03:36:58;;;;;;;;;;;19.50;37.30;;;;;;491978;240;1160;-44
2021/03/15 03:38:59;;;;;;;;;;;19.70;37.10;;;;;;491811;240;1080;-44
2021/03/15 03:41:00;;;;;;;;;;;19.70;36.80;;;;;;491587;240;1175;-45
2021/03/15 03:43:02;;;;;;;;;;;19.80;36.70;;;;;;491666;240;2140;-44
2021/03/15 03:45:03;;;;;;;;;;;19.90;36.50;;;;;;491655;240;1044;-45
2021/03/15 03:47:04;;;;;;;;;;;20.00;36.40;;;;;;491821;240;1304;-44
2021/03/15 03:49:05;;;;;;;;;;;20.00;36.30;;;;;;491620;240;1066;-45
2021/03/15 03:51:08;;;;;;;;;;;20.10;36.30;;;;;;491898;240;971;-45
2021/03/15 03:53:09;;;;;;;;;;;20.10;36.10;;;;;;491651;240;1053;-44
2021/03/15 03:55:11;;;;;;;;;;;20.10;36.00;;;;;;491730;240;1120;-44
2021/03/15 03:57:12;;;;;;;;;;;20.20;36.00;;;;;;491621;240;1058;-44
2021/03/15 03:59:13;;;;;;;;;;;20.30;36.00;;;;;;491778;240;1004;-45
2021/03/15 04:01:14;;;;;;;;;;;20.30;35.90;;;;;;491710;240;1125;-45
2021/03/15 04:03:17;;;;;;;;;;;20.30;35.80;;;;;;491669;240;2144;-45
2021/03/15 04:05:18;;;;;;;;;;;20.30;35.70;;;;;;491653;240;1108;-44
2021/03/15 04:07:19;;;;;;;;;;;20.40;35.70;;;;;;491761;240;1161;-44
2021/03/15 04:09:21;;;;;;;;;;;20.40;35.60;;;;;;491634;240;1061;-45
2021/03/15 04:11:22;;;;;;;;;;;20.40;35.50;;;;;;491726;240;1154;-45
2021/03/15 04:13:23;;;;;;;;;;;20.40;35.50;;;;;;491672;240;968;-45
2021/03/15 04:15:24;;;;;;;;;;;20.50;35.50;;;;;;491959;240;1037;-44
2021/03/15 04:17:26;;;;;;;;;;;20.50;35.40;;;;;;491649;240;1137;-44
2021/03/15 04:19:27;;;;;;;;;;;20.60;35.50;;;;;;491633;240;1068;-45
2021/03/15 04:21:28;;;;;;;;;;;20.60;35.40;;;;;;491636;240;1104;-45
2021/03/15 04:23:30;;;;;;;;;;;20.60;35.40;;;;;;491707;240;2141;-45
2021/03/15 04:25:32;;;;;;;;;;;20.60;35.30;;;;;;491763;240;1177;-45
2021/03/15 04:27:32;;;;;;;;;;;20.70;35.30;;;;;;491914;240;1700;-45
2021/03/15 04:29:34;;;;;;;;;;;20.70;35.20;;;;;;491649;240;1079;-45
2021/03/15 04:31:35;;;;;;;;;;;20.70;35.20;;;;;;491702;240;1168;-45
2021/03/15 04:33:36;;;;;;;;;;;20.70;35.20;;;;;;491672;240;1028;-45
2021/03/15 04:35:37;;;;;;;;;;;20.70;35.10;;;;;;492123;240;1088;-45
2021/03/15 04:37:39;;;;;;;;;;;20.70;35.10;;;;;;491655;240;1094;-44
2021/03/15 04:39:40;;;;;;;;;;;20.80;35.10;;;;;;491771;240;1021;-44
2021/03/15 04:41:41;;;;;;;;;;;20.80;35.10;;;;;;491780;240;1225;-44
2021/03/15 04:43:43;;;;;;;;;;;20.80;35.00;;;;;;491755;240;2188;-45
2021/03/15 04:45:44;;;;;;;;;;;20.80;35.00;;;;;;491838;240;1139;-44
2021/03/15 04:47:45;;;;;;;;;;;20.90;35.00;;;;;;491896;240;1035;-45
2021/03/15 04:49:48;;;;;;;;;;;20.90;34.90;;;;;;491815;240;1042;-44
2021/03/15 04:51:49;;;;;;;;;;;20.90;34.90;;;;;;491779;241;1812;-45
2021/03/15 04:53:50;;;;;;;;;;;20.90;34.90;;;;;;491680;240;1060;-44
2021/03/15 04:55:51;;;;;;;;;;;20.90;34.90;;;;;;492003;240;1331;-45
2021/03/15 04:57:55;;;;;;;;;;;20.90;34.80;;;;;;491635;240;1062;-45
2021/03/15 04:59:56;;;;;;;;;;;21.00;34.90;;;;;;491734;240;1038;-44
2021/03/15 05:01:57;;;;;;;;;;;21.00;34.80;;;;;;491759;240;1090;-45
2021/03/15 05:03:58;;;;;;;;;;;21.00;34.80;;;;;;491965;240;2180;-44
2021/03/15 05:06:00;;;;;;;;;;;21.00;34.80;;;;;;491719;240;1117;-45
2021/03/15 05:08:01;;;;;;;;;;;21.00;34.80;;;;;;491840;240;1083;-45
2021/03/15 05:10:02;;;;;;;;;;;21.00;34.70;;;;;;491869;240;1055;-45
2021/03/15 05:12:04;;;;;;;;;;;21.00;34.70;;;;;;491522;240;1546;-45
2021/03/15 05:14:05;;;;;;;;;;;21.00;34.70;;;;;;491659;240;1092;-45
2021/03/15 05:16:06;;;;;;;;;;;21.10;34.70;;;;;;491740;240;1518;-44
2021/03/15 05:18:08;;;;;;;;;;;21.00;34.70;;;;;;491612;240;1120;-45
2021/03/15 05:20:09;;;;;;;;;;;21.10;34.80;;;;;;491619;240;1272;-45
2021/03/15 05:22:10;;;;;;;;;;;21.10;34.70;;;;;;491553;240;1146;-45
2021/03/15 05:24:11;;;;;;;;;;;21.10;34.70;;;;;;491640;240;2192;-45
2021/03/15 05:26:13;;;;;;;;;;;21.10;34.70;;;;;;491840;239;1367;-44
2021/03/15 05:28:14;;;;;;;;;;;21.10;34.70;;;;;;491582;240;1166;-44
2021/03/15 05:30:15;;;;;;;;;;;21.10;34.60;;;;;;491634;240;1082;-44
2021/03/15 05:32:16;;;;;;;;;;;21.10;34.60;;;;;;491529;240;1156;-44
2021/03/15 05:34:18;;;;;;;;;;;21.10;34.70;;;;;;491564;240;1101;-45
2021/03/15 05:36:19;;;;;;;;;;;21.10;34.60;;;;;;491661;240;1115;-45
2021/03/15 05:38:20;;;;;;;;;;;21.10;34.70;;;;;;491486;240;1024;-45
2021/03/15 05:40:22;;;;;;;;;;;21.10;34.70;;;;;;491513;240;1077;-44
2021/03/15 05:42:23;;;;;;;;;;;21.10;34.70;;;;;;491550;240;1181;-44
2021/03/15 05:44:24;;;;;;;;;;;21.10;34.70;;;;;;491576;240;2137;-45
2021/03/15 05:46:25;;;;;;;;;;;21.10;34.60;;;;;;491471;240;1381;-45
2021/03/15 05:48:27;;;;;;;;;;;21.20;34.60;;;;;;491589;240;1075;-45
2021/03/15 05:50:29;;;;;;;;;;;21.20;34.60;;;;;;491869;240;1026;-44
2021/03/15 05:52:30;;;;;;;;;;;21.20;34.60;;;;;;491494;242;1211;-44
2021/03/15 05:54:31;;;;;;;;;;;21.20;34.60;;;;;;491636;240;1057;-45
2021/03/15 05:56:33;;;;;;;;;;;21.20;34.60;;;;;;491598;239;1305;-44
2021/03/15 05:58:34;;;;;;;;;;;21.20;34.60;;;;;;491389;238;1226;-45
2021/03/15 06:00:35;;;;;;;;;;;21.20;34.60;;;;;;491499;240;1021;-45
2021/03/15 06:02:37;;;;;;;;;;;21.20;34.60;;;;;;491690;240;1308;-45
2021/03/15 06:04:38;;;;;;;;;;;21.20;34.60;;;;;;491517;240;2193;-45
2021/03/15 06:06:39;;;;;;;;;;;21.20;34.60;;;;;;491449;240;987;-45
2021/03/15 06:08:41;;;;;;;;;;;21.20;34.60;;;;;;491419;240;1063;-45
2021/03/15 06:10:42;;;;;;;;;;;21.20;34.60;;;;;;491420;240;1269;-45
2021/03/15 06:12:44;;;;;;;;;;;21.30;34.50;;;;;;491357;240;1272;-45
2021/03/15 06:14:45;;;;;;;;;;;21.20;34.50;;;;;;491509;240;1104;-45
2021/03/15 06:16:46;;;;;;;;;;;21.30;34.60;;;;;;491464;240;1266;-45
2021/03/15 06:18:47;;;;;;;;;;;21.30;34.60;;;;;;491361;240;1051;-44
2021/03/15 06:20:50;;;;;;;;;;;21.30;34.50;;;;;;491406;240;1351;-45
2021/03/15 06:22:50;;;;;;;;;;;21.30;34.60;;;;;;491408;240;2005;-45
2021/03/15 06:24:52;;;;;;;;;;;21.30;34.60;;;;;;491442;240;2184;-45
2021/03/15 06:26:53;;;;;;;;;;;21.30;34.60;;;;;;491341;242;1589;-44
2021/03/15 06:28:55;;;;;;;;;;;21.30;34.50;;;;;;491494;240;1071;-45
2021/03/15 06:30:57;;;;;;;;;;;21.30;34.50;;;;;;491340;240;1164;-45
2021/03/15 06:32:58;;;;;;;;;;;21.30;34.50;;;;;;491393;240;1061;-45
2021/03/15 06:34:59;;;;;;;;;;;21.30;34.50;;;;;;491278;240;1137;-44
2021/03/15 06:37:01;;;;;;;;;;;21.30;34.50;;;;;;491194;240;1049;-44
2021/03/15 06:39:02;;;;;;;;;;;21.30;34.50;;;;;;491371;240;1093;-45
2021/03/15 06:41:03;;;;;;;;;;;21.30;34.50;;;;;;491345;240;1131;-45
2021/03/15 06:43:04;;;;;;;;;;;21.40;34.50;;;;;;491347;240;1214;-44
2021/03/15 06:45:06;;;;;;;;;;;21.30;34.50;;;;;;491314;240;2129;-44
2021/03/15 06:47:07;;;;;;;;;;;21.30;34.50;;;;;;491170;240;1174;-44
2021/03/15 06:49:08;;;;;;;;;;;21.30;34.50;;;;;;491171;240;1076;-45
2021/03/15 06:51:10;;;;;;;;;;;21.40;34.50;;;;;;491166;240;1209;-44
2021/03/15 06:53:11;;;;;;;;;;;21.40;34.40;;;;;;491254;240;1257;-45
2021/03/15 06:55:12;;;;;;;;;;;21.40;34.50;;;;;;491410;240;1248;-44
2021/03/15 06:57:13;;;;;;;;;;;21.30;34.50;;;;;;491188;240;1274;-45
2021/03/15 06:59:15;;;;;;;;;;;21.30;34.50;;;;;;491135;240;1066;-45
2021/03/15 07:01:16;;;;;;;;;;;21.30;34.50;;;;;;491052;240;1073;-45
2021/03/15 07:03:17;;;;;;;;;;;21.40;34.50;;;;;;491101;240;1093;-44
2021/03/15 07:05:19;;;;;;;;;;;21.30;34.50;;;;;;491114;240;2196;-44
2021/03/15 07:07:20;;;;;;;;;;;21.40;34.50;;;;;;491036;241;1066;-45
2021/03/15 07:09:21;;;;;;;;;;;21.40;34.50;;;;;;491130;240;1334;-45
2021/03/15 07:11:22;;;;;;;;;;;21.40;34.50;;;;;;491089;241;1077;-44
2021/03/15 07:13:24;;;;;;;;;;;21.40;34.40;;;;;;491183;240;1297;-45
2021/03/15 07:15:25;;;;;;;;;;;21.40;34.40;;;;;;491198;241;1077;-45
2021/03/15 07:17:26;;;;;;;;;;;21.40;34.40;;;;;;491133;241;1179;-45
2021/03/15 07:19:27;;;;;;;;;;;21.40;34.40;;;;;;491036;240;1060;-45
2021/03/15 07:21:29;;;;;;;;;;;21.40;34.40;;;;;;491118;240;1084;-45
2021/03/15 07:23:30;;;;;;;;;;;21.40;34.40;;;;;;491161;240;1076;-44
2021/03/15 07:25:31;;;;;;;;;;;21.40;34.40;;;;;;491088;241;2120;-44
2021/03/15 07:27:33;;;;;;;;;;;21.40;34.40;;;;;;491060;240;1186;-45
2021/03/15 07:29:34;;;;;;;;;;;21.40;34.40;;;;;;491082;241;1058;-45
2021/03/15 07:31:35;;;;;;;;;;;21.50;34.50;;;;;;490995;240;1131;-45
2021/03/15 07:33:36;;;;;;;;;;;21.40;34.40;;;;;;490872;240;1077;-45
2021/03/15 07:35:39;;;;;;;;;;;21.40;34.40;;;;;;491071;240;1056;-45
2021/03/15 07:37:39;;;;;;;;;;;21.40;34.40;;;;;;491306;240;1891;-44
2021/03/15 07:39:41;;;;;;;;;;;21.50;34.50;;;;;;491019;240;1295;-45
2021/03/15 07:41:43;;;;;;;;;;;21.50;34.40;;;;;;490825;240;1124;-45
2021/03/15 07:43:43;;;;;;;;;;;21.50;34.40;;;;;;491011;240;1353;-44
2021/03/15 07:45:45;;;;;;;;;;;21.50;34.40;;;;;;491106;240;2132;-44
2021/03/15 07:47:46;;;;;;;;;;;21.50;34.40;;;;;;490950;240;1139;-44
2021/03/15 07:49:48;;;;;;;;;;;21.40;34.40;;;;;;491049;240;1089;-45
2021/03/15 07:51:48;;;;;;;;;;;21.40;34.50;;;;;;490954;241;2227;-44
2021/03/15 07:53:50;;;;;;;;;;;21.40;34.50;;;;;;491018;240;1063;-45
2021/03/15 07:55:51;;;;;;;;;;;21.50;34.40;;;;;;491059;240;1174;-45
2021/03/15 07:57:53;;;;;;;;;;;21.50;34.40;;;;;;491063;240;1474;-45
2021/03/15 07:59:54;;;;;;;;;;;21.50;34.30;;;;;;490801;240;1088;-45
2021/03/15 08:01:55;;;;;;;;;;;21.50;34.40;;;;;;490873;240;1046;-45
2021/03/15 08:03:57;;;;;;;;;;;21.60;34.40;;;;;;490977;240;1135;-45
2021/03/15 08:05:58;;;;;;;;;;;21.60;34.20;;;;;;490720;240;2269;-45
2021/03/15 08:07:59;;;;;;;;;;;21.60;34.30;;;;;;490763;240;1078;-45
2021/03/15 08:10:00;;;;;;;;;;;21.60;34.30;;;;;;490921;240;1085;-45
2021/03/15 08:12:02;;;;;;;;;;;21.60;34.20;;;;;;490860;240;1081;-45
2021/03/15 08:14:03;;;;;;;;;;;21.70;34.20;;;;;;490875;240;1309;-45
2021/03/15 08:16:04;;;;;;;;;;;21.70;34.30;;;;;;490658;240;1170;-44
2021/03/15 08:18:05;;;;;;;;;;;21.70;34.30;;;;;;490685;242;1071;-44
2021/03/15 08:20:07;;;;;;;;;;;21.70;34.30;;;;;;490933;240;1038;-45
2021/03/15 08:22:08;;;;;;;;;;;21.60;34.20;;;;;;490768;240;1257;-44
2021/03/15 08:24:09;;;;;;;;;;;21.70;34.20;;;;;;490843;240;1049;-45
2021/03/15 08:26:10;;;;;;;;;;;21.70;34.20;;;;;;490803;240;2208;-44
2021/03/15 08:28:12;;;;;;;;;;;21.70;34.10;;;;;;490888;240;1168;-45
2021/03/15 08:30:13;;;;;;;;;;;21.80;34.20;;;;;;490819;240;1099;-44
2021/03/15 08:32:14;;;;;;;;;;;21.80;34.10;;;;;;490655;240;1505;-45
2021/03/15 08:34:17;;;;;;;;;;;21.80;34.20;;;;;;490826;240;1183;-45
2021/03/15 08:36:17;;;;;;;;;;;21.70;34.10;;;;;;490623;241;2538;-45
2021/03/15 08:38:18;;;;;;;;;;;21.70;34.10;;;;;;490802;240;1241;-45
2021/03/15 08:40:20;;;;;;;;;;;21.80;34.20;;;;;;490912;240;1252;-45
2021/03/15 08:42:21;;;;;;;;;;;21.80;34.10;;;;;;490717;240;1167;-45
2021/03/15 08:44:22;;;;;;;;;;;21.80;34.20;;;;;;490890;240;1227;-45
2021/03/15 08:46:24;;;;;;;;;;;21.80;34.10;;;;;;490849;240;2205;-45
2021/03/15 08:48:25;;;;;;;;;;;21.80;34.20;;;;;;490823;242;1060;-45
2021/03/15 08:50:26;;;;;;;;;;;21.80;34.10;;;;;;490782;240;1205;-44
2021/03/15 08:52:28;;;;;;;;;;;21.80;34.20;;;;;;490804;240;1314;-45
2021/03/15 08:54:29;;;;;;;;;;;21.80;34.10;;;;;;490883;240;1119;-45
2021/03/15 08:56:30;;;;;;;;;;;21.80;34.10;;;;;;490823;240;1184;-45
2021/03/15 08:58:31;;;;;;;;;;;21.80;34.10;;;;;;490901;240;1209;-45
2021/03/15 09:00:33;;;;;;;;;;;21.90;34.10;;;;;;490908;240;1130;-44
2021/03/15 09:02:34;;;;;;;;;;;21.80;34.10;;;;;;490800;240;1211;-45
2021/03/15 09:04:39;;;;;;;;;;;21.80;34.10;;;;;;490710;240;2195;-45
2021/03/15 09:06:37;;;;;;;;;;;21.80;34.20;;;;;;490605;241;1917;-45
2021/03/15 09:08:38;;;;;;;;;;;21.80;34.10;;;;;;490654;240;1075;-45
2021/03/15 09:10:39;;;;;;;;;;;21.90;34.10;;;;;;490667;240;1234;-45
2021/03/15 09:12:40;;;;;;;;;;;21.90;34.20;;;;;;490669;240;1132;-45
2021/03/15 09:14:43;;;;;;;;;;;21.90;34.10;;;;;;490840;240;1210;-45
2021/03/15 09:16:43;;;;;;;;;;;21.90;34.20;;;;;;490592;242;1934;-45
2021/03/15 09:18:45;;;;;;;;;;;21.90;34.10;;;;;;490814;241;1060;-45
2021/03/15 09:20:46;;;;;;;;;;;21.90;34.20;;;;;;490714;240;2100;-44
2021/03/15 09:22:47;;;;;;;;;;;21.90;34.20;;;;;;490724;240;1226;-45
2021/03/15 09:24:48;;;;;;;;;;;21.90;34.10;;;;;;490805;240;2200;-44
2021/03/15 09:26:50;;;;;;;;;;;21.90;34.10;;;;;;490753;240;1130;-45
2021/03/15 09:28:51;;;;;;;;;;;21.90;34.10;;;;;;490703;240;1697;-45
2021/03/15 09:30:52;;;;;;;;;;;21.90;34.00;;;;;;490358;240;1130;-44
2021/03/15 09:32:53;;;;;;;;;;;21.90;34.10;;;;;;490303;240;1216;-44
2021/03/15 09:34:54;;;;;;;;;;;21.90;34.20;;;;;;490806;240;1103;-44
2021/03/15 09:36:56;;;;;;;;;;;21.80;34.20;;;;;;490726;240;1242;-45
2021/03/15 09:38:57;;;;;;;;;;;21.90;34.30;;;;;;490853;240;1104;-45
2021/03/15 09:40:58;;;;;;;;;;;21.90;34.20;;;;;;490631;240;1452;-45
2021/03/15 09:43:00;;;;;;;;;;;21.90;34.20;;;;;;490633;240;1193;-44
2021/03/15 09:45:01;;;;;;;;;;;21.90;34.20;;;;;;490643;240;2191;-44
2021/03/15 09:47:02;;;;;;;;;;;21.90;34.20;;;;;;490557;241;1183;-45
2021/03/15 09:49:03;;;;;;;;;;;21.90;34.30;;;;;;491323;240;739;-45
2021/03/15 09:51:05;;;;;;;;;;;21.90;34.30;;;;;;491224;240;1416;-45
2021/03/15 09:53:06;;;;;;;;;;;21.90;34.30;;;;;;491322;240;999;-45
2021/03/15 09:55:07;;;;;;;;;;;21.90;34.20;;;;;;491325;240;851;-45
2021/03/15 09:57:09;;;;;;;;;;;21.80;34.30;;;;;;490006;240;1118;-45
2021/03/15 09:59:10;;;;;;;;;;;21.80;34.30;;;;;;491175;240;1163;-44
2021/03/15 10:01:11;;;;;;;;;;;21.80;34.30;;;;;;491030;240;755;-45
2021/03/15 10:03:12;;;;;;;;;;;21.90;34.30;;;;;;491041;240;756;-45
2021/03/15 10:05:14;;;;;;;;;;;21.80;34.30;;;;;;491138;240;2192;-44
2021/03/15 10:07:15;;;;;;;;;;;21.80;34.40;;;;;;491031;240;844;-45
2021/03/15 10:09:16;;;;;;;;;;;21.80;34.30;;;;;;491047;240;1298;-44
2021/03/15 10:11:17;;;;;;;;;;;21.80;34.30;;;;;;491002;240;772;-44
2021/03/15 10:13:19;;;;;;;;;;;21.80;34.30;;;;;;491054;240;836;-45
2021/03/15 10:15:20;;;;;;;;;;;21.90;34.30;;;;;;490720;240;1070;-45
2021/03/15 10:17:21;;;;;;;;;;;21.80;34.30;;;;;;490406;238;1156;-45
2021/03/15 10:19:23;;;;;;;;;;;21.80;34.30;;;;;;490470;243;848;-44
2021/03/15 10:21:24;;;;;;;;;;;21.90;34.30;;;;;;490884;240;806;-45
2021/03/15 10:23:28;;;;;;;;;;;21.80;34.40;;;;;;490519;240;817;-45
2021/03/15 10:25:27;;;;;;;;;;;21.90;34.60;;;;;;489711;242;2197;-45
2021/03/15 10:27:28;;;;;;;;;;;21.90;34.40;;;;;;490692;240;1070;-45
2021/03/15 10:29:29;;;;;;;;;;;21.90;34.40;;;;;;490452;240;1129;-44
2021/03/15 10:31:30;;;;;;;;;;;21.90;34.30;;;;;;490363;240;1157;-45
2021/03/15 10:33:32;;;;;;;;;;;21.90;34.20;;;;;;490494;240;1049;-45
2021/03/15 10:35:33;;;;;;;;;;;21.90;34.30;;;;;;490315;240;1446;-45
2021/03/15 10:37:34;;;;;;;;;;;21.90;34.30;;;;;;490494;240;1073;-45
2021/03/15 10:39:36;;;;;;;;;;;21.90;34.30;;;;;;490580;240;1059;-45
2021/03/15 10:41:37;;;;;;;;;;;21.90;34.30;;;;;;490548;240;1070;-45
2021/03/15 10:43:38;;;;;;;;;;;21.90;34.30;;;;;;490632;240;1143;-45
2021/03/15 10:45:39;;;;;;;;;;;21.90;34.30;;;;;;490619;240;2193;-45
2021/03/15 10:47:41;;;;;;;;;;;21.90;34.30;;;;;;490564;240;1109;-45
2021/03/15 10:49:42;;;;;;;;;;;21.90;34.30;;;;;;490649;240;1081;-45
2021/03/15 10:51:45;;;;;;;;;;;21.90;34.30;;;;;;490661;240;1037;-44
2021/03/15 10:53:45;;;;;;;;;;;21.90;34.20;;;;;;490635;241;1673;-45
2021/03/15 10:55:47;;;;;;;;;;;21.90;34.20;;;;;;490687;240;1223;-44
2021/03/15 10:57:49;;;;;;;;;;;21.90;34.30;;;;;;489945;238;1971;-45
2021/03/15 10:59:50;;;;;;;;;;;21.90;34.30;;;;;;490586;240;1498;-45
2021/03/15 11:01:51;;;;;;;;;;;21.90;34.30;;;;;;490546;240;1470;-44
2021/03/15 11:03:53;;;;;;;;;;;21.90;34.20;;;;;;490595;240;1122;-44
2021/03/15 11:05:54;;;;;;;;;;;21.90;34.20;;;;;;490439;240;2137;-45
2021/03/15 11:07:55;;;;;;;;;;;21.90;34.20;;;;;;490271;240;1203;-45
2021/03/15 11:09:57;;;;;;;;;;;21.90;34.20;;;;;;490177;240;1098;-44
2021/03/15 11:11:59;;;;;;;;;;;21.90;34.20;;;;;;490109;240;1329;-45
2021/03/15 11:13:59;;;;;;;;;;;21.90;34.20;;;;;;490298;241;1423;-45
2021/03/15 11:16:01;;;;;;;;;;;21.90;34.20;;;;;;490454;240;1172;-45
2021/03/15 11:18:02;;;;;;;;;;;21.90;34.20;;;;;;490400;240;1193;-45
2021/03/15 11:20:03;;;;;;;;;;;21.90;34.20;;;;;;490656;240;1075;-45
2021/03/15 11:22:05;;;;;;;;;;;21.90;34.20;;;;;;490940;240;1177;-45
2021/03/15 11:24:06;;;;;;;;;;;21.90;34.20;;;;;;491516;240;832;-45
2021/03/15 11:26:07;;;;;;;;;;;21.90;34.20;;;;;;491500;240;2200;-44
2021/03/15 11:28:09;;;;;;;;;;;21.90;34.20;;;;;;491652;240;921;-45
2021/03/15 11:30:10;;;;;;;;;;;21.90;34.20;;;;;;491510;240;1185;-45
2021/03/15 11:32:11;;;;;;;;;;;21.90;34.20;;;;;;491054;240;1001;-45
2021/03/15 11:34:12;;;;;;;;;;;21.90;34.20;;;;;;490800;240;800;-45
2021/03/15 11:36:14;;;;;;;;;;;21.90;34.20;;;;;;491342;240;1495;-45
2021/03/15 11:38:15;;;;;;;;;;;21.90;34.10;;;;;;491287;240;776;-45
2021/03/15 11:40:16;;;;;;;;;;;21.90;34.20;;;;;;490727;240;825;-44
2021/03/15 11:42:17;;;;;;;;;;;21.90;34.10;;;;;;491485;240;1210;-45
2021/03/15 11:44:19;;;;;;;;;;;21.90;34.20;;;;;;491505;240;1265;-44
2021/03/15 11:46:20;;;;;;;;;;;21.90;34.20;;;;;;491111;240;2177;-45
2021/03/15 11:48:21;;;;;;;;;;;21.90;34.20;;;;;;491386;240;912;-45
2021/03/15 11:50:23;;;;;;;;;;;21.90;34.20;;;;;;491551;240;840;-44
2021/03/15 11:52:25;;;;;;;;;;;21.90;34.10;;;;;;491170;240;842;-44
2021/03/15 11:54:25;;;;;;;;;;;22.00;34.10;;;;;;490903;242;1312;-45
2021/03/15 11:56:26;;;;;;;;;;;21.80;34.20;;;;;;491240;238;1140;-45